Terminal Aerodrome Forecast
Issued by NWS Louisville, KY

Home | Current Version | Previous Version | Text Only | Print | Product List | Glossary On
Versions: 1 2 3 4 5 6 7 8 9 10 11 12 13 14 15 16 17 18 19 20
000
FTUS43 KLMK 302000 AAB
TAFSDF
TAF AMD
KSDF 302013Z 3020/3124 18015G23KT P6SM -SHRA VCTS BKN045CB
     FM302020 18015G30KT 1 1/2SM -TSRA BR BKN035CB
     FM302045 17015G24KT P6SM -SHRA VCTS BKN045CB
     FM302300 20013KT P6SM VCSH BKN035
     FM310700 23011KT P6SM BKN028
     FM311200 23008KT P6SM BKN018=

USA.gov is the U.S. government's official web portal to all federal, state and local government web resources and services.